Lampang, Thailand
Current Conditions -  °F | °C
As of 10:30 AM on Sunday 25 Jan 2015 (Local Time) from VTCC Reporting Station
Clear Clear  
Wind Chill: 72°   Ceiling: Unl
Heat Index: 72°   Visibility: 5mi
Dew Point: 55°   Wind: 3mph
Humidity: 57%   Direction: 350°N
Pressure: 30.12"   Gusts: NA
Location:  18.29°N, 99.48°E
Report Text: VTCC 250330Z 35003KT 8000 NSC 22/13 Q1020 A3013 NOSIG
Loading
Personal Weather Stations






























Interactive Weather Map New forecast layout! Learn more

10-Day Weather Forecast

Advertisements
Track Severe Weather on mobile